Time;durP1;ratioP1;P1;durP2;ratioP2;P2;SDS_P1;SDS_P2;PMS_P1;PMS_P2;Temp;Humidity;BMP_temperature;BMP_pressure;BME280_temperature;BME280_humidity;BME280_pressure;Samples;Min_cycle;Max_cycle;Signal;HPM_P1;HPM_P2
2023/12/26 00:01:45;;;;;;;0.20;0.20;;;;;;;10.93;50.68;101265.81;4953834;28;20110;-89
2023/12/26 00:04:12;;;;;;;0.20;0.20;;;;;;;11.00;50.53;101265.50;4937975;29;20086;-89
2023/12/26 00:06:38;;;;;;;0.20;0.20;;;;;;;10.90;50.20;101248.66;4954090;28;20035;-88
2023/12/26 00:09:04;;;;;;;0.20;0.20;;;;;;;11.12;50.01;101264.19;4955251;28;20027;-87
2023/12/26 00:11:30;;;;;;;0.20;0.20;;;;;;;11.00;49.79;101234.41;4937743;29;20045;-88
2023/12/26 00:13:56;;;;;;;0.20;0.20;;;;;;;11.22;49.70;101265.47;4953722;28;20059;-89
2023/12/26 00:16:23;;;;;;;0.20;0.20;;;;;;;11.15;49.51;101246.75;4953216;28;20047;-89
2023/12/26 00:18:49;;;;;;;0.20;0.20;;;;;;;11.28;49.27;101277.31;4955097;28;20039;-89
2023/12/26 00:21:15;;;;;;;0.20;0.20;;;;;;;11.25;49.08;101259.31;4955192;28;20058;-89
2023/12/26 00:23:40;;;;;;;0.20;0.20;;;;;;;11.25;49.78;101270.53;4953565;29;20090;-89
2023/12/26 00:26:06;;;;;;;0.20;0.20;;;;;;;11.06;49.67;101246.28;4954613;28;20485;-89
2023/12/26 00:28:31;;;;;;;0.20;0.20;;;;;;;11.03;49.85;101244.69;4953462;29;20031;-88
2023/12/26 00:30:57;;;;;;;0.20;0.20;;;;;;;11.26;49.68;101271.38;4954939;28;20082;-87
2023/12/26 00:33:23;;;;;;;0.10;0.10;;;;;;;11.24;49.50;101265.41;4953579;29;20031;-88
2023/12/26 00:35:48;;;;;;;0.20;0.20;;;;;;;11.33;49.40;101270.22;4954000;28;20245;-88
2023/12/26 00:38:14;;;;;;;0.20;0.20;;;;;;;11.36;49.45;101277.84;4953326;28;20023;-88
2023/12/26 00:40:41;;;;;;;0.20;0.20;;;;;;;11.51;49.42;101282.41;4954638;29;20035;-88
2023/12/26 00:43:10;;;;;;;0.20;0.20;;;;;;;11.71;48.77;101277.19;4953376;29;20152;-89
2023/12/26 00:45:35;;;;;;;0.20;0.20;;;;;;;11.86;48.50;101269.69;4954627;28;20478;-88
2023/12/26 00:48:01;;;;;;;0.10;0.10;;;;;;;12.18;47.52;101273.44;4937105;29;20038;-88
2023/12/26 00:50:27;;;;;;;0.10;0.10;;;;;;;12.53;46.81;101283.03;4954389;28;20066;-89
2023/12/26 00:52:52;;;;;;;0.10;0.10;;;;;;;12.72;46.31;101279.59;4953661;28;20043;-89
2023/12/26 00:55:18;;;;;;;0.20;0.20;;;;;;;12.85;45.78;101281.50;4954087;28;20038;-88
2023/12/26 00:57:43;;;;;;;0.10;0.10;;;;;;;12.94;45.65;101285.44;4954634;28;20066;-88
2023/12/26 01:00:09;;;;;;;0.20;0.20;;;;;;;13.06;44.96;101278.78;4953136;28;20041;-89
2023/12/26 01:02:35;;;;;;;0.20;0.20;;;;;;;13.14;45.21;101287.06;4952777;29;20077;-89
2023/12/26 01:05:00;;;;;;;0.20;0.20;;;;;;;13.09;45.34;101286.47;4954148;28;20071;-87
2023/12/26 01:07:26;;;;;;;0.20;0.20;;;;;;;13.05;45.60;101284.91;4952861;29;20498;-88
2023/12/26 01:09:52;;;;;;;0.10;0.10;;;;;;;12.80;45.59;101241.97;4953936;28;20035;-88
2023/12/26 01:12:18;;;;;;;0.13;0.13;;;;;;;12.92;45.46;101276.88;4954095;28;20077;-88
2023/12/26 01:14:44;;;;;;;0.20;0.20;;;;;;;12.97;45.53;101285.28;4956084;28;20251;-88
2023/12/26 01:17:10;;;;;;;0.20;0.20;;;;;;;12.99;45.44;101290.41;4956083;28;20031;-89
2023/12/26 01:19:35;;;;;;;0.20;0.20;;;;;;;13.01;45.21;101292.03;4939968;28;20031;-89
2023/12/26 01:22:01;;;;;;;0.10;0.10;;;;;;;12.98;45.45;101292.19;4955838;28;20031;-89
2023/12/26 01:24:26;;;;;;;0.10;0.10;;;;;;;12.93;45.24;101297.56;4955528;28;20038;-88
2023/12/26 01:26:52;;;;;;;0.20;0.20;;;;;;;12.88;45.20;101290.91;4939418;28;20035;-90
2023/12/26 01:29:17;;;;;;;0.20;0.20;;;;;;;12.55;46.12;101273.44;4955990;28;20984;-89
2023/12/26 01:31:43;;;;;;;0.20;0.20;;;;;;;12.68;45.85;101307.44;4955563;28;20022;-88
2023/12/26 01:34:09;;;;;;;0.10;0.10;;;;;;;12.68;45.66;101309.19;4973000;28;20074;-88
2023/12/26 01:36:34;;;;;;;0.20;0.20;;;;;;;12.60;46.11;101307.81;4972544;28;20050;-88
2023/12/26 01:39:00;;;;;;;0.20;0.20;;;;;;;12.54;46.00;101302.88;4955422;28;20031;-88
2023/12/26 01:41:26;;;;;;;0.20;0.20;;;;;;;12.52;46.16;101301.28;4955687;28;20030;-89
2023/12/26 01:43:51;;;;;;;0.20;0.20;;;;;;;12.37;46.45;101274.28;4955727;28;20508;-89
2023/12/26 01:46:17;;;;;;;0.20;0.20;;;;;;;12.37;46.80;101297.63;4972493;28;20041;-88
2023/12/26 01:48:45;;;;;;;0.20;0.20;;;;;;;12.32;47.24;101292.66;4955697;28;20035;-88
2023/12/26 01:51:11;;;;;;;0.20;0.20;;;;;;;12.07;47.88;101294.66;4955458;28;20034;-88
2023/12/26 01:53:38;;;;;;;0.20;0.20;;;;;;;11.74;48.46;101290.03;4971494;28;20031;-87
2023/12/26 01:56:08;;;;;;;0.20;0.20;;;;;;;11.65;48.42;101292.16;4955660;28;20034;-87
2023/12/26 01:58:35;;;;;;;0.20;0.20;;;;;;;11.61;48.84;101273.31;4955300;28;20030;-88
2023/12/26 02:01:02;;;;;;;0.20;0.20;;;;;;;11.64;48.59;101282.72;4939442;28;20492;-87
2023/12/26 02:03:27;;;;;;;0.20;0.20;;;;;;;11.63;49.12;101276.69;4939002;28;20144;-88
2023/12/26 02:05:53;;;;;;;0.20;0.20;;;;;;;11.57;48.65;101256.19;4955246;28;20509;-88
2023/12/26 02:08:18;;;;;;;0.20;0.20;;;;;;;11.89;47.97;101282.50;4954474;28;20501;-86
2023/12/26 02:10:44;;;;;;;0.20;0.20;;;;;;;11.84;47.89;101258.53;4939047;28;20034;-88
2023/12/26 02:13:09;;;;;;;0.10;0.10;;;;;;;11.96;47.56;101273.56;4954954;28;20432;-87
2023/12/26 02:15:35;;;;;;;0.20;0.20;;;;;;;11.89;47.44;101266.94;4939110;28;20031;-88
2023/12/26 02:18:01;;;;;;;0.20;0.20;;;;;;;11.92;47.42;101272.03;4954906;28;20030;-88
2023/12/26 02:20:26;;;;;;;0.20;0.20;;;;;;;11.67;48.05;101273.03;4955095;28;20026;-88
2023/12/26 02:22:52;;;;;;;0.20;0.20;;;;;;;11.44;48.23;101255.06;4972040;28;20065;-89
2023/12/26 02:25:19;;;;;;;0.20;0.20;;;;;;;11.52;48.78;101284.06;4972484;28;20030;-89
2023/12/26 02:27:45;;;;;;;0.20;0.20;;;;;;;11.53;49.59;101274.56;4955186;28;20030;-86
2023/12/26 02:30:11;;;;;;;0.20;0.20;;;;;;;11.80;48.56;101290.69;4954620;28;20098;-88
2023/12/26 02:32:37;;;;;;;0.20;0.20;;;;;;;11.88;47.91;101281.66;4954761;28;20521;-89
2023/12/26 02:35:05;;;;;;;0.10;0.10;;;;;;;11.94;47.60;101268.44;4954949;28;20489;-88
2023/12/26 02:37:31;;;;;;;0.10;0.10;;;;;;;11.81;48.10;101295.81;4954657;28;20027;-88
2023/12/26 02:39:57;;;;;;;0.10;0.10;;;;;;;11.76;47.84;101290.78;4958515;28;20030;-88
2023/12/26 02:42:24;;;;;;;0.20;0.20;;;;;;;11.71;48.11;101295.34;4960947;28;20037;-88
2023/12/26 02:44:50;;;;;;;0.10;0.10;;;;;;;11.59;48.30;101298.44;4961552;28;20502;-90
2023/12/26 02:47:15;;;;;;;0.15;0.15;;;;;;;11.48;48.75;101282.50;4961000;28;20035;-89
2023/12/26 02:49:41;;;;;;;0.10;0.10;;;;;;;11.56;48.88;101300.31;4961030;28;20038;-89
2023/12/26 02:52:07;;;;;;;0.20;0.20;;;;;;;11.53;49.40;101296.13;4944756;28;20030;-89
2023/12/26 02:54:32;;;;;;;0.20;0.20;;;;;;;11.39;50.53;101303.63;4961332;28;20061;-88
2023/12/26 02:56:58;;;;;;;0.10;0.10;;;;;;;11.04;51.79;101300.72;4960894;28;20050;-90
2023/12/26 02:59:23;;;;;;;0.20;0.20;;;;;;;10.76;51.78;101264.75;4978134;28;20463;-90
2023/12/26 03:01:49;;;;;;;0.20;0.20;;;;;;;10.96;52.38;101292.41;4978240;28;20030;-87
2023/12/26 03:04:14;;;;;;;0.20;0.20;;;;;;;10.95;51.74;101302.84;4961166;28;20023;-87
2023/12/26 03:06:40;;;;;;;0.20;0.20;;;;;;;10.84;51.99;101300.69;4977793;28;20034;-89
2023/12/26 03:09:08;;;;;;;0.10;0.10;;;;;;;10.75;52.31;101301.03;4960862;28;20109;-88
2023/12/26 03:11:34;;;;;;;0.20;0.20;;;;;;;10.71;53.83;101300.28;4945171;28;20034;-88
2023/12/26 03:13:59;;;;;;;0.20;0.20;;;;;;;10.54;53.96;101288.03;4960801;28;20061;-88
2023/12/26 03:16:25;;;;;;;0.20;0.20;;;;;;;10.48;54.71;101303.75;4944973;28;20041;-88
2023/12/26 03:18:51;;;;;;;0.10;0.10;;;;;;;10.49;54.44;101310.63;4977922;28;20468;-88
2023/12/26 03:21:16;;;;;;;0.10;0.10;;;;;;;10.35;54.75;101310.31;4960731;28;20034;-89
2023/12/26 03:23:42;;;;;;;0.10;0.10;;;;;;;10.37;54.41;101312.84;4960714;28;20106;-88
2023/12/26 03:26:07;;;;;;;0.20;0.20;;;;;;;10.30;54.15;101305.28;4960592;28;20485;-87
2023/12/26 03:28:34;;;;;;;0.20;0.20;;;;;;;10.33;54.87;101306.94;4960413;28;20476;-89
2023/12/26 03:31:02;;;;;;;0.10;0.10;;;;;;;10.26;55.28;101318.41;4961139;28;20037;-89
2023/12/26 03:33:28;;;;;;;0.10;0.10;;;;;;;10.14;55.28;101316.25;4960846;28;20050;-88
2023/12/26 03:35:54;;;;;;;0.10;0.10;;;;;;;10.04;55.13;101308.81;4960557;28;20027;-89
2023/12/26 03:38:19;;;;;;;0.10;0.10;;;;;;;9.99;55.16;101315.03;4977553;28;20035;-89
2023/12/26 03:40:45;;;;;;;0.10;0.10;;;;;;;9.89;55.96;101319.69;4944940;28;20073;-89
2023/12/26 03:43:10;;;;;;;0.10;0.10;;;;;;;9.80;56.08;101314.81;4960381;28;20062;-88
2023/12/26 03:45:36;;;;;;;0.10;0.10;;;;;;;9.54;56.23;101281.28;4960605;28;20056;-87
2023/12/26 03:48:02;;;;;;;0.20;0.20;;;;;;;9.71;56.53;101317.72;4960344;28;20497;-88
2023/12/26 03:50:28;;;;;;;0.10;0.10;;;;;;;9.65;56.65;101321.38;4942735;28;20089;-88
2023/12/26 03:52:54;;;;;;;0.10;0.10;;;;;;;9.57;57.50;101322.53;4957772;28;20444;-88
2023/12/26 03:55:19;;;;;;;0.20;0.20;;;;;;;9.69;56.68;101329.84;4957741;28;20062;-89
2023/12/26 03:57:46;;;;;;;0.20;0.20;;;;;;;9.65;56.47;101323.13;4957728;28;20049;-88
2023/12/26 04:00:12;;;;;;;0.20;0.20;;;;;;;9.57;57.01;101314.78;4957768;28;20022;-89
2023/12/26 04:02:40;;;;;;;0.20;0.20;;;;;;;9.58;56.83;101300.97;4941318;28;20349;-88
2023/12/26 04:05:06;;;;;;;0.17;0.17;;;;;;;9.60;57.17;101319.84;4974399;28;20121;-88
2023/12/26 04:07:31;;;;;;;0.20;0.20;;;;;;;9.52;56.99;101314.06;4974230;28;20109;-87
2023/12/26 04:09:58;;;;;;;0.10;0.10;;;;;;;9.40;56.87;101318.75;4974618;28;20117;-88
2023/12/26 04:12:23;;;;;;;0.17;0.17;;;;;;;9.41;57.12;101323.03;4956998;28;20026;-89
2023/12/26 04:14:49;;;;;;;0.10;0.10;;;;;;;9.44;57.01;101322.09;4957217;28;20042;-88
2023/12/26 04:17:16;;;;;;;0.20;0.20;;;;;;;9.40;57.69;101328.25;4957207;28;20035;-90
2023/12/26 04:19:41;;;;;;;0.10;0.10;;;;;;;9.45;57.94;101329.78;4941260;28;20085;-88
2023/12/26 04:22:07;;;;;;;0.20;0.20;;;;;;;9.33;58.83;101337.91;4957297;28;20035;-88
2023/12/26 04:24:32;;;;;;;0.10;0.10;;;;;;;9.19;58.87;101322.88;4956983;28;20058;-89
2023/12/26 04:26:58;;;;;;;0.20;0.20;;;;;;;9.23;58.78;101333.09;4957031;28;20114;-88
2023/12/26 04:29:23;;;;;;;0.20;0.20;;;;;;;9.14;58.87;101331.66;4973860;28;20033;-88
2023/12/26 04:31:49;;;;;;;0.10;0.10;;;;;;;9.10;58.89;101330.06;4957005;28;20038;-88
2023/12/26 04:34:14;;;;;;;0.10;0.10;;;;;;;8.99;59.07;101319.25;4956640;28;20564;-88
2023/12/26 04:36:40;;;;;;;0.17;0.17;;;;;;;9.00;58.97;101315.78;4974212;28;20397;-88
2023/12/26 04:39:06;;;;;;;0.10;0.10;;;;;;;9.12;59.21;101326.53;4956787;28;20027;-87
2023/12/26 04:41:32;;;;;;;0.20;0.20;;;;;;;9.03;59.19;101328.56;4957163;28;20031;-88
2023/12/26 04:43:58;;;;;;;0.20;0.20;;;;;;;8.89;59.31;101324.69;4956848;28;20077;-87
2023/12/26 04:46:23;;;;;;;0.10;0.10;;;;;;;8.80;59.49;101322.38;4956380;28;20111;-90
2023/12/26 04:48:49;;;;;;;0.20;0.20;;;;;;;8.77;59.50;101324.22;4973819;28;20375;-88
2023/12/26 04:51:18;;;;;;;0.10;0.10;;;;;;;8.72;59.61;101328.66;4956401;28;20474;-88
2023/12/26 04:53:47;;;;;;;0.20;0.20;;;;;;;8.69;58.54;101298.66;4940855;28;20027;-88
2023/12/26 04:56:17;;;;;;;0.10;0.10;;;;;;;8.98;58.38;101314.97;4956517;28;20022;-86
2023/12/26 04:58:47;;;;;;;0.20;0.20;;;;;;;9.12;57.65;101325.69;4940965;28;20023;-89
2023/12/26 05:01:16;;;;;;;0.15;0.15;;;;;;;9.22;57.16;101323.66;4973296;28;20030;-88
2023/12/26 05:03:42;;;;;;;0.20;0.20;;;;;;;9.44;56.22;101333.28;4971895;28;20026;-87
2023/12/26 05:06:08;;;;;;;0.20;0.20;;;;;;;9.67;55.74;101323.91;4940297;28;20042;-87
2023/12/26 05:08:36;;;;;;;0.20;0.20;;;;;;;9.85;55.40;101328.44;4956280;28;20035;-89
2023/12/26 05:11:02;;;;;;;0.20;0.20;;;;;;;9.84;54.54;101313.00;4940106;28;20031;-89
2023/12/26 05:13:28;;;;;;;0.20;0.20;;;;;;;9.99;54.05;101300.34;4955806;28;20051;-88
2023/12/26 05:15:54;;;;;;;0.10;0.10;;;;;;;10.38;52.85;101323.13;4955892;28;20109;-89
2023/12/26 05:18:20;;;;;;;0.20;0.20;;;;;;;10.50;52.48;101317.47;4973076;28;20519;-88
2023/12/26 05:20:45;;;;;;;0.20;0.20;;;;;;;10.53;52.12;101301.88;4956242;28;20030;-88
2023/12/26 05:23:11;;;;;;;0.20;0.20;;;;;;;10.65;51.72;101310.06;4973460;28;20038;-89
2023/12/26 05:25:36;;;;;;;0.20;0.20;;;;;;;10.78;51.61;101311.25;4939972;28;20023;-87
2023/12/26 05:28:02;;;;;;;0.10;0.10;;;;;;;10.72;51.19;101309.78;4973108;28;20035;-88
2023/12/26 05:30:27;;;;;;;0.10;0.10;;;;;;;10.75;51.00;101309.63;4955526;28;20033;-89
2023/12/26 05:32:53;;;;;;;0.20;0.20;;;;;;;10.57;51.12;101271.53;4956262;28;20122;-88
2023/12/26 05:35:19;;;;;;;0.10;0.10;;;;;;;10.78;50.60;101298.31;4973126;28;20018;-87
2023/12/26 05:37:45;;;;;;;0.10;0.10;;;;;;;10.83;50.49;101312.78;4972938;28;20089;-89
2023/12/26 05:40:10;;;;;;;0.20;0.20;;;;;;;10.78;50.81;101311.25;4956004;28;20486;-89
2023/12/26 05:42:36;;;;;;;0.20;0.20;;;;;;;10.78;50.68;101308.66;4939482;28;20042;-87
2023/12/26 05:45:03;;;;;;;0.20;0.20;;;;;;;10.76;50.68;101315.66;4955207;28;20089;-84
2023/12/26 05:47:28;;;;;;;0.20;0.20;;;;;;;10.74;50.66;101312.28;4955780;28;20031;-88
2023/12/26 05:49:57;;;;;;;0.20;0.20;;;;;;;10.77;50.89;101315.59;4955377;28;20041;-89
2023/12/26 05:52:24;;;;;;;0.10;0.10;;;;;;;10.61;50.38;101278.25;4972469;28;20114;-89
2023/12/26 05:54:49;;;;;;;0.20;0.20;;;;;;;10.72;50.50;101311.50;4939750;28;20033;-88
2023/12/26 05:57:15;;;;;;;0.10;0.10;;;;;;;10.49;51.01;101295.09;4955758;28;20027;-88
2023/12/26 05:59:40;;;;;;;0.10;0.10;;;;;;;10.49;51.03;101326.16;4939030;28;20027;-87
2023/12/26 06:02:06;;;;;;;0.10;0.10;;;;;;;10.37;51.53;101325.75;4972394;28;20555;-86
2023/12/26 06:04:31;;;;;;;0.20;0.20;;;;;;;10.22;52.02;101314.22;4955560;28;20030;-88
2023/12/26 06:06:57;;;;;;;0.10;0.10;;;;;;;10.20;52.31;101318.59;4955653;28;20035;-89
2023/12/26 06:09:23;;;;;;;0.20;0.20;;;;;;;10.21;52.70;101320.25;4972504;28;20085;-88
2023/12/26 06:11:48;;;;;;;0.10;0.10;;;;;;;10.16;52.73;101319.59;4955002;28;20432;-88
2023/12/26 06:14:14;;;;;;;0.10;0.10;;;;;;;10.00;53.42;101317.56;4953860;28;20085;-86
2023/12/26 06:16:39;;;;;;;0.10;0.10;;;;;;;10.00;53.15;101333.06;4955045;28;20038;-88
2023/12/26 06:19:05;;;;;;;0.17;0.17;;;;;;;9.97;54.06;101342.69;4955205;28;20037;-87
2023/12/26 06:21:31;;;;;;;0.20;0.20;;;;;;;9.86;53.86;101335.31;4972355;28;20100;-89
2023/12/26 06:23:56;;;;;;;0.20;0.20;;;;;;;9.81;53.93;101337.19;4972099;28;20031;-88
2023/12/26 06:26:22;;;;;;;0.20;0.20;;;;;;;9.86;53.79;101343.06;4972014;28;20030;-88
2023/12/26 06:28:48;;;;;;;0.10;0.10;;;;;;;9.75;54.31;101346.00;4954940;28;20030;-89
2023/12/26 06:31:14;;;;;;;0.10;0.10;;;;;;;9.64;54.72;101344.69;4954786;28;20046;-87
2023/12/26 06:33:40;;;;;;;0.10;0.10;;;;;;;9.62;54.70;101347.28;4972206;28;20030;-88
2023/12/26 06:36:06;;;;;;;0.20;0.20;;;;;;;9.64;54.68;101350.69;4954707;28;20031;-88
2023/12/26 06:38:32;;;;;;;0.20;0.20;;;;;;;9.55;55.22;101350.16;4938727;28;20050;-89
2023/12/26 06:40:57;;;;;;;0.20;0.20;;;;;;;9.51;55.19;101351.13;4954812;28;20058;-88
2023/12/26 06:43:23;;;;;;;0.20;0.20;;;;;;;9.45;55.44;101350.47;4938947;28;20025;-89
2023/12/26 06:45:48;;;;;;;0.20;0.20;;;;;;;9.41;55.91;101355.75;4955025;28;20086;-89
2023/12/26 06:48:14;;;;;;;0.20;0.20;;;;;;;9.40;55.11;101352.34;4972130;28;20037;-90
2023/12/26 06:50:39;;;;;;;0.20;0.20;;;;;;;9.30;55.25;101358.69;4938603;28;20122;-88
2023/12/26 06:53:05;;;;;;;0.10;0.10;;;;;;;9.36;55.61;101360.25;4954812;28;20027;-88
2023/12/26 06:55:30;;;;;;;0.10;0.10;;;;;;;9.40;55.34;101347.16;4954760;28;20038;-88
2023/12/26 06:57:56;;;;;;;0.20;0.20;;;;;;;9.46;55.50;101366.78;4938397;28;20026;-87
2023/12/26 07:00:22;;;;;;;0.20;0.20;;;;;;;9.31;55.61;101350.03;4954640;28;20035;-88
2023/12/26 07:02:47;;;;;;;0.10;0.10;;;;;;;9.41;55.92;101363.50;4938805;28;20063;-88
2023/12/26 07:05:13;;;;;;;0.20;0.20;;;;;;;9.13;56.33;101327.38;4954803;28;20033;-88
2023/12/26 07:07:39;;;;;;;0.20;0.20;;;;;;;9.37;56.33;101373.09;4971547;28;20113;-87
2023/12/26 07:10:04;;;;;;;0.20;0.20;;;;;;;9.44;56.05;101377.19;4938775;28;20126;-88
2023/12/26 07:12:30;;;;;;;0.10;0.10;;;;;;;9.25;55.85;101339.09;4954056;28;20062;-88
2023/12/26 07:14:55;;;;;;;0.17;0.17;;;;;;;9.50;55.85;101378.69;4971516;28;20509;-88
2023/12/26 07:17:21;;;;;;;0.20;0.20;;;;;;;9.40;56.02;101366.97;4954805;28;20627;-89
2023/12/26 07:19:46;;;;;;;0.20;0.20;;;;;;;9.59;55.93;101388.75;4954806;28;20027;-88
2023/12/26 07:22:12;;;;;;;0.20;0.20;;;;;;;9.62;56.24;101382.63;4954435;28;20031;-89
2023/12/26 07:24:37;;;;;;;0.20;0.20;;;;;;;9.61;56.06;101370.59;4971564;28;20030;-88
2023/12/26 07:27:03;;;;;;;0.20;0.20;;;;;;;9.56;56.48;101362.19;4957758;28;20031;-88
2023/12/26 07:29:29;;;;;;;0.10;0.10;;;;;;;9.75;56.15;101387.34;4942060;28;20027;-88
2023/12/26 07:31:54;;;;;;;0.20;0.20;;;;;;;9.72;56.14;101381.41;4975517;28;20404;-88
2023/12/26 07:34:20;;;;;;;0.10;0.10;;;;;;;9.67;56.36;101362.66;4957884;28;20378;-89
2023/12/26 07:36:45;;;;;;;0.10;0.10;;;;;;;9.85;55.85;101385.31;4957861;28;20493;-89
2023/12/26 07:39:11;;;;;;;0.17;0.17;;;;;;;9.81;55.89;101373.34;4958170;28;20057;-88
2023/12/26 07:41:37;;;;;;;0.20;0.20;;;;;;;9.80;55.74;101355.31;4957300;28;20512;-88
2023/12/26 07:44:02;;;;;;;0.20;0.20;;;;;;;10.01;55.83;101377.84;4975016;28;20105;-87
2023/12/26 07:46:28;;;;;;;0.10;0.10;;;;;;;10.11;55.62;101379.22;4957482;28;20104;-90
2023/12/26 07:48:54;;;;;;;0.10;0.10;;;;;;;10.18;55.58;101385.03;4974962;28;20035;-88
2023/12/26 07:51:19;;;;;;;0.20;0.20;;;;;;;10.12;55.61;101359.38;4974896;28;20030;-87
2023/12/26 07:53:46;;;;;;;0.20;0.20;;;;;;;10.36;55.67;101387.00;4957812;28;20027;-88
2023/12/26 07:56:11;;;;;;;0.20;0.20;;;;;;;10.39;55.50;101379.13;4941471;28;20034;-88
2023/12/26 07:58:38;;;;;;;0.20;0.20;;;;;;;10.54;54.59;101386.34;4957469;28;20039;-88
2023/12/26 08:01:04;;;;;;;0.20;0.20;;;;;;;10.62;54.77;101378.31;4941693;28;20039;-88
2023/12/26 08:03:29;;;;;;;0.20;0.20;;;;;;;10.77;54.26;101382.03;4957050;28;20437;-89
2023/12/26 08:05:55;;;;;;;0.20;0.20;;;;;;;10.90;54.21;101375.50;4957433;28;20507;-89
2023/12/26 08:08:20;;;;;;;0.20;0.20;;;;;;;11.01;54.45;101373.34;4957331;28;20118;-90
2023/12/26 08:10:47;;;;;;;0.20;0.20;;;;;;;11.03;53.86;101381.91;4957275;28;20023;-89
2023/12/26 08:13:13;;;;;;;0.10;0.10;;;;;;;10.92;53.45;101381.47;4957124;28;20054;-89
2023/12/26 08:15:39;;;;;;;0.20;0.20;;;;;;;10.88;53.68;101369.53;4941006;28;20034;-89
2023/12/26 08:18:04;;;;;;;0.10;0.10;;;;;;;11.10;52.91;101385.91;4957022;28;20035;-90
2023/12/26 08:20:33;;;;;;;0.20;0.20;;;;;;;11.24;54.22;101389.72;4941215;28;20189;-90
2023/12/26 08:22:59;;;;;;;0.20;0.20;;;;;;;11.22;54.71;101381.19;4957687;28;20539;-89
2023/12/26 08:25:24;;;;;;;0.20;0.20;;;;;;;11.39;54.78;101389.09;4956841;28;20066;-91
2023/12/26 08:27:50;;;;;;;0.10;0.10;;;;;;;11.46;54.91;101395.75;4974158;28;20054;-90
2023/12/26 08:30:16;;;;;;;0.17;0.17;;;;;;;11.39;54.45;101386.50;4973945;28;20421;-88
2023/12/26 08:32:41;;;;;;;0.10;0.10;;;;;;;11.41;53.83;101392.50;4956900;28;20034;-89
2023/12/26 08:35:07;;;;;;;0.10;0.10;;;;;;;11.42;53.76;101392.44;4940557;28;20030;-88
2023/12/26 08:37:33;;;;;;;0.10;0.10;;;;;;;11.45;53.46;101386.28;4956240;28;20038;-90
2023/12/26 08:39:58;;;;;;;0.10;0.10;;;;;;;11.51;53.26;101386.03;4973670;28;20579;-89
2023/12/26 08:42:24;;;;;;;0.13;0.13;;;;;;;11.39;52.56;101353.69;4956647;28;20037;-88
2023/12/26 08:44:49;;;;;;;0.20;0.20;;;;;;;11.65;52.13;101381.13;4956485;28;20034;-89
2023/12/26 08:47:15;;;;;;;0.10;0.10;;;;;;;11.83;52.51;101391.69;4956661;28;20065;-90
2023/12/26 08:49:41;;;;;;;0.10;0.10;;;;;;;11.95;52.70;101391.16;4956659;28;20085;-89
2023/12/26 08:52:06;;;;;;;0.20;0.20;;;;;;;11.97;53.51;101394.50;4973541;28;20031;-89
2023/12/26 08:54:32;;;;;;;0.20;0.20;;;;;;;12.07;54.73;101390.63;4973273;28;20031;-91
2023/12/26 08:56:57;;;;;;;0.20;0.20;;;;;;;12.17;54.70;101380.69;4956324;28;20031;-88
2023/12/26 08:59:23;;;;;;;0.10;0.10;;;;;;;12.32;54.71;101390.41;4956412;28;20054;-89
2023/12/26 09:01:49;;;;;;;0.20;0.20;;;;;;;12.33;54.53;101363.56;4956298;28;20031;-89
2023/12/26 09:04:14;;;;;;;0.20;0.20;;;;;;;12.48;53.74;101364.59;4956193;28;20035;-89
2023/12/26 09:06:40;;;;;;;0.20;0.20;;;;;;;12.63;52.58;101374.31;4973009;28;20026;-89
2023/12/26 09:09:06;;;;;;;0.20;0.20;;;;;;;12.63;51.35;101379.50;4956474;28;20061;-89
2023/12/26 09:11:32;;;;;;;0.20;0.20;;;;;;;12.42;51.59;101380.47;4955855;28;20485;-88
2023/12/26 09:13:57;;;;;;;0.20;0.20;;;;;;;12.38;51.42;101363.34;4973239;28;20493;-90
2023/12/26 09:16:23;;;;;;;0.10;0.10;;;;;;;12.45;51.23;101356.97;4955898;28;20022;-88
2023/12/26 09:18:49;;;;;;;0.10;0.10;;;;;;;12.68;51.39;101367.13;4956097;28;20062;-89
2023/12/26 09:21:14;;;;;;;0.20;0.20;;;;;;;12.66;51.47;101358.59;4956086;28;20110;-89
2023/12/26 09:23:40;;;;;;;0.20;0.20;;;;;;;12.69;51.77;101353.28;4955396;28;20118;-89
2023/12/26 09:26:06;;;;;;;0.10;0.10;;;;;;;12.83;51.56;101353.47;4956070;28;20501;-89
2023/12/26 09:28:32;;;;;;;0.10;0.10;;;;;;;12.95;51.78;101371.97;4955754;28;20058;-90
2023/12/26 09:30:58;;;;;;;0.20;0.20;;;;;;;12.94;51.50;101350.34;4955889;28;20058;-89
2023/12/26 09:33:24;;;;;;;0.20;0.20;;;;;;;13.00;51.73;101350.06;4973285;28;20035;-89
2023/12/26 09:35:50;;;;;;;0.20;0.20;;;;;;;13.08;51.30;101353.16;4971433;28;20065;-87
2023/12/26 09:38:15;;;;;;;0.20;0.20;;;;;;;13.18;50.82;101354.41;4955352;28;20031;-87
2023/12/26 09:40:41;;;;;;;0.20;0.20;;;;;;;13.31;50.67;101357.28;4972926;28;20058;-87
2023/12/26 09:43:07;;;;;;;0.20;0.20;;;;;;;13.34;50.29;101344.13;4972507;28;20018;-88
2023/12/26 09:45:33;;;;;;;0.20;0.20;;;;;;;13.34;50.33;101319.88;4955890;28;20070;-88
2023/12/26 09:47:58;;;;;;;0.10;0.10;;;;;;;13.48;49.90;101351.25;4955026;28;20027;-89
2023/12/26 09:50:24;;;;;;;0.10;0.10;;;;;;;13.54;49.84;101344.91;4954620;28;20097;-89
2023/12/26 09:52:56;;;;;;;0.20;0.20;;;;;;;13.58;49.78;101346.44;4955203;28;20041;-90
2023/12/26 09:55:21;;;;;;;0.20;0.20;;;;;;;13.66;49.71;101337.31;4955804;28;20099;-89
2023/12/26 09:57:47;;;;;;;0.13;0.13;;;;;;;13.80;49.22;101330.59;4955391;28;20118;-89
2023/12/26 10:00:13;;;;;;;0.10;0.10;;;;;;;13.92;48.87;101341.19;4955394;28;20038;-89
2023/12/26 10:02:38;;;;;;;0.10;0.10;;;;;;;14.02;48.58;101332.00;4955226;28;20035;-90
2023/12/26 10:05:05;;;;;;;0.20;0.20;;;;;;;14.04;48.19;101321.50;4955301;28;20030;-89
2023/12/26 10:07:31;;;;;;;0.10;0.10;;;;;;;14.20;48.39;101329.34;4938892;28;20142;-88
2023/12/26 10:09:56;;;;;;;0.10;0.10;;;;;;;14.26;48.23;101321.25;4972020;28;20556;-90
2023/12/26 10:12:34;;;;;;;0.10;0.10;;;;;;;14.36;48.09;101322.44;4972176;28;20469;-91
2023/12/26 10:15:04;;;;;;;0.10;0.10;;;;;;;14.53;47.65;101324.97;4940174;28;20039;-88
2023/12/26 10:17:30;;;;;;;0.20;0.20;;;;;;;14.70;46.96;101316.25;4955160;28;20027;-89
2023/12/26 10:19:57;;;;;;;0.20;0.20;;;;;;;14.80;46.76;101316.56;4954870;28;20019;-90
2023/12/26 10:22:24;;;;;;;0.20;0.20;;;;;;;14.96;46.54;101313.97;4955208;28;20087;-88
2023/12/26 10:24:49;;;;;;;0.10;0.10;;;;;;;15.06;46.09;101313.34;4971014;28;20039;-88
2023/12/26 10:27:15;;;;;;;0.20;0.20;;;;;;;15.16;45.94;101309.31;4972230;28;20416;-90
2023/12/26 10:29:40;;;;;;;0.10;0.10;;;;;;;15.18;45.28;101312.66;4955354;28;20090;-90
2023/12/26 10:32:06;;;;;;;0.10;0.10;;;;;;;15.12;45.01;101297.34;4954675;28;20030;-90
2023/12/26 10:34:31;;;;;;;0.10;0.10;;;;;;;15.17;44.87;101305.75;4954425;28;20059;-89
2023/12/26 10:36:58;;;;;;;0.10;0.10;;;;;;;15.13;44.89;101293.81;4953940;28;20035;-89
2023/12/26 10:39:24;;;;;;;0.10;0.10;;;;;;;15.13;44.74;101291.22;4955015;28;20109;-88
2023/12/26 10:41:52;;;;;;;0.20;0.20;;;;;;;15.15;44.71;101285.94;4954544;28;20169;-88
2023/12/26 10:44:17;;;;;;;0.10;0.10;;;;;;;15.16;44.79;101288.44;4954734;28;20416;-89
2023/12/26 10:46:44;;;;;;;0.20;0.20;;;;;;;15.23;44.55;101282.88;4971996;28;20031;-90
2023/12/26 10:49:17;;;;;;;0.10;0.10;;;;;;;15.32;44.00;101270.13;4954064;28;20507;-89
2023/12/26 10:51:43;;;;;;;0.20;0.20;;;;;;;15.32;43.58;101251.06;4939594;28;20082;-90
2023/12/26 10:54:24;;;;;;;0.20;0.20;;;;;;;15.64;43.18;101275.28;4971920;28;20031;-89
2023/12/26 10:56:49;;;;;;;0.17;0.17;;;;;;;15.76;43.49;101251.06;4923140;28;20105;-89
2023/12/26 13:51:23;;;;;;;0.20;0.20;;;;;;;17.49;38.40;101113.44;4972801;28;20081;-89
2023/12/26 13:53:48;;;;;;;0.15;0.15;;;;;;;17.41;38.78;101110.53;4972549;28;20042;-90
2023/12/26 13:56:14;;;;;;;0.20;0.20;;;;;;;17.47;38.48;101107.47;4972596;28;20050;-89
2023/12/26 13:58:40;;;;;;;0.20;0.20;;;;;;;17.45;39.07;101101.53;4972155;28;20113;-89
2023/12/26 14:01:05;;;;;;;0.20;0.20;;;;;;;17.37;38.84;101098.59;4972414;28;20122;-90
2023/12/26 14:03:31;;;;;;;0.20;0.20;;;;;;;17.46;38.98;101118.06;4955002;28;20066;-90
2023/12/26 14:05:57;;;;;;;0.20;0.20;;;;;;;17.35;39.73;101116.19;4972357;28;20382;-90
2023/12/26 14:08:22;;;;;;;0.10;0.10;;;;;;;17.35;39.96;101113.56;4955169;28;20409;-90
2023/12/26 14:10:48;;;;;;;0.20;0.20;;;;;;;17.28;40.56;101109.69;4955076;28;20026;-90
2023/12/26 14:13:13;;;;;;;0.20;0.20;;;;;;;17.30;40.59;101114.81;4954788;28;20090;-89